createdAt,value
2022-09-10T00:07:48.987Z,2.02
2022-09-10T00:17:57.930Z,2.07
2022-09-10T00:28:06.856Z,2.02
2022-09-10T00:38:15.898Z,1.83
2022-09-10T00:48:25.231Z,2.65
2022-09-10T00:58:34.074Z,3.02
2022-09-10T01:08:42.968Z,2.92
2022-09-10T01:18:51.754Z,2.59
2022-09-10T01:29:00.622Z,2.81
2022-09-10T01:39:09.529Z,2.88
2022-09-10T01:49:18.526Z,2.67
2022-09-10T01:59:27.587Z,2.59
2022-09-10T02:09:36.590Z,2.57
2022-09-10T02:19:48.042Z,2.63
2022-09-10T02:29:47.791Z,2.7
2022-09-10T02:39:57.938Z,2.79
2022-09-10T02:49:56.973Z,6.81
2022-09-10T03:00:06.097Z,3
2022-09-10T03:10:14.928Z,2.43
2022-09-10T03:20:23.751Z,2.57
2022-09-10T03:30:32.790Z,2.41
2022-09-10T03:40:41.715Z,2.25
2022-09-10T03:50:50.726Z,2.31
2022-09-10T04:00:59.731Z,2.29
2022-09-10T04:11:08.845Z,2.49
2022-09-10T04:21:17.775Z,2.5
2022-09-10T04:31:26.894Z,3.25
2022-09-10T04:41:35.792Z,3.52
2022-09-10T04:51:44.830Z,4.43
2022-09-10T05:01:54.889Z,4.05
2022-09-10T05:11:53.922Z,4.63
2022-09-10T05:22:03.516Z,4.48
2022-09-10T05:32:19.399Z,3.37
2022-09-10T05:42:15.728Z,3.39
2022-09-10T05:52:14.816Z,3.38
2022-09-10T06:02:24.365Z,2.95
2022-09-10T06:12:31.878Z,3.7
2022-09-10T06:22:40.960Z,3.28
2022-09-10T06:32:51.476Z,3.89
2022-09-10T06:42:50.275Z,4.09
2022-09-10T06:52:59.716Z,4.54
2022-09-10T07:03:08.695Z,5.14
2022-09-10T07:13:19.966Z,4.74
2022-09-10T07:23:26.566Z,4.5
2022-09-10T07:33:29.604Z,4.22
2022-09-10T07:43:29.925Z,5.17
2022-09-10T07:53:30.510Z,4.39
2022-09-10T08:03:29.619Z,3.96
2022-09-10T08:43:48.367Z,1.94
2022-09-10T08:53:49.632Z,1.47
2022-09-10T09:04:04.969Z,1.58
2022-09-10T09:14:03.753Z,1.32
2022-09-10T09:24:13.032Z,1.44
2022-09-10T09:34:16.499Z,1.35
2022-09-10T09:44:14.146Z,1.31
2022-09-10T09:54:46.944Z,1.44
2022-09-10T10:04:24.121Z,1.46
2022-09-10T10:14:24.546Z,1.12
2022-09-10T10:24:24.632Z,1.21
2022-09-10T10:34:23.621Z,1.33
2022-09-10T10:44:36.411Z,1.44
2022-09-10T10:54:43.543Z,1.31
2022-09-10T11:04:53.249Z,1.4
2022-09-10T11:14:55.268Z,1.49
2022-09-10T11:24:54.760Z,1.41
2022-09-10T11:35:07.499Z,1.5
2022-09-10T11:45:06.416Z,1.42
2022-09-10T11:55:27.038Z,1.34
2022-09-10T12:05:35.672Z,1.51
2022-09-10T12:15:26.985Z,1.85
2022-09-10T12:25:34.849Z,1.81
2022-09-10T12:35:39.170Z,1.68
2022-09-10T12:45:55.688Z,1.46
2022-09-10T13:06:24.151Z,1.21
2022-09-10T13:16:31.202Z,1.38
2022-09-10T13:26:05.486Z,1.68
2022-09-10T13:36:18.894Z,1.55
2022-09-10T13:46:08.254Z,2.13
2022-09-10T13:56:18.542Z,1.26
2022-09-10T14:06:18.445Z,1.3
2022-09-10T14:16:30.029Z,1.36
2022-09-10T14:26:36.528Z,1.25
2022-09-10T14:36:35.662Z,1.4
2022-09-10T14:46:44.613Z,1.5
2022-09-10T14:56:53.545Z,1.21
2022-09-10T15:07:02.548Z,1.23
2022-09-10T15:17:12.936Z,1.14
2022-09-10T15:27:12.351Z,1.24
2022-09-10T15:37:25.097Z,1.27
2022-09-10T15:47:23.957Z,1.26
2022-09-10T15:57:32.896Z,1.41
2022-09-10T16:07:41.824Z,1.47
2022-09-10T16:17:50.795Z,1.2
2022-09-10T16:28:00.857Z,1.14
2022-09-10T16:38:00.722Z,1.32
2022-09-10T16:48:09.747Z,1.41
2022-09-10T16:58:18.715Z,1.28
2022-09-10T17:08:27.780Z,1.05
2022-09-10T17:18:38.348Z,1.23
2022-09-10T17:28:38.091Z,1.18
2022-09-10T17:38:55.661Z,1.28
2022-09-10T17:48:55.034Z,1.3
2022-09-10T18:09:08.804Z,1.23
2022-09-10T18:19:25.034Z,1.44
2022-09-10T18:29:23.015Z,2.75
2022-09-10T18:39:37.647Z,2.24
2022-09-10T18:49:45.673Z,1.73
2022-09-10T18:59:41.206Z,1.7
2022-09-10T19:09:50.670Z,1.56
2022-09-10T19:19:49.550Z,1.91
2022-09-10T19:30:03.648Z,1.79
2022-09-10T19:40:03.301Z,2.13
2022-09-10T19:50:13.258Z,2.55
2022-09-10T20:00:43.355Z,2.4
2022-09-10T20:10:23.869Z,2.64
2022-09-10T20:20:32.723Z,3.25
2022-09-10T20:30:42.052Z,2.98
2022-09-10T20:40:53.096Z,2.84
2022-09-10T20:50:53.614Z,4.18
2022-09-10T21:00:56.258Z,2.65
2022-09-10T21:11:01.435Z,2.93
2022-09-10T21:21:03.201Z,2.69
2022-09-10T21:31:06.334Z,4.3
2022-09-10T21:41:08.455Z,3
2022-09-10T21:51:08.596Z,2.84
2022-09-10T22:01:08.176Z,3.16
2022-09-10T22:11:17.078Z,3.16
2022-09-10T22:41:30.392Z,2.6
2022-09-10T22:51:39.388Z,2.79
2022-09-10T23:01:48.315Z,2.83
2022-09-10T23:11:57.301Z,3.05
2022-09-10T23:22:06.298Z,2.72
2022-09-10T23:42:18.602Z,2.37
2022-09-10T23:52:18.606Z,2.89
